Celebrity Constellation — 9HJB9 — position and weather

sailwx.info

Track history (hours):
 
Tides and Currents Weather Stations Pressure Air Temp Water Temp Dewpoint Dewpoint Depression Visibility Wind Speed Wind Dir Waves Ship Positions

Celebrity Constellation

Last reported at 2017-Oct-18 06:00 UTC. Time now 2017-Oct-18 13:01 UTC.
Position N 41°54' E 008°42'.

Length 294 m; draft 8.3 m.

Type: Passenger vessel. MMSI: 249046000.

Wind from 010 at 4 knots

Barometer 1021.0 mb
Air temperature 18.0 ° C
Visibility: greater than 5.4 NM

Date/timePositionNaut miles runAvg speedWind from/ knotsBaromVisibWave heightAir tempDewpointWater temp
2017-Oct-18 06:00N 41°54' E 008°42'43 7.2 010 / 41021.0 5.4 18.0
2017-Oct-18 00:00N 42°36' E 008°30'551.3 100 / 31025.0 5.4 18.0 21.0
2017-Oct-17 23:54N 42°40' E 008°33'716.9
2017-Oct-17 23:30N 42°46' E 008°36'917.1
2017-Oct-17 23:00N 42°51' E 008°45'917.1
2017-Oct-17 22:30N 42°56' E 008°55'917.2
2017-Oct-17 22:00N 43°01' E 009°05'917.5
2017-Oct-17 21:30N 43°05' E 009°16'917.4
2017-Oct-17 21:00N 43°08' E 009°27'817.1
2017-Oct-17 20:30N 43°12' E 009°37'917.4
2017-Oct-17 20:00N 43°16' E 009°48'917.5
2017-Oct-17 19:30N 43°20' E 009°59'917.6
2017-Oct-17 19:00N 43°26' E 010°07'815.9
2017-Oct-17 18:30N 43°32' E 010°15'3 5.7
2017-Oct-17 18:00N 43°33' E 010°18'0 0.0
2017-Oct-17 17:28N 43°33' E 010°18'0 0.0
2017-Oct-17 16:57N 43°33' E 010°18'0 0.0
2017-Oct-17 16:30N 43°33' E 010°18'0 0.0
2017-Oct-17 15:55N 43°33' E 010°18'0 0.0
2017-Oct-17 15:27N 43°33' E 010°18'0 0.0
2017-Oct-17 14:56N 43°33' E 010°18'0 0.0
2017-Oct-17 14:29N 43°33' E 010°18'0 0.0
2017-Oct-17 13:53N 43°33' E 010°18'0 0.0
2017-Oct-17 13:28N 43°33' E 010°18'3 7.2
2017-Oct-17 13:00N 43°30' E 010°18'374.2 1023.0 5.4 21.0 21.0
2017-Oct-17 12:57N 43°33' E 010°18'0 0.0
2017-Oct-17 12:27N 43°33' E 010°18'0 0.0
2017-Oct-17 12:00N 43°33' E 010°18'0 0.0
2017-Oct-17 11:30N 43°33' E 010°18'0 0.0
2017-Oct-17 10:48N 43°33' E 010°18'0 0.0
2017-Oct-17 10:18N 43°33' E 010°18'0 0.0
2017-Oct-17 10:00N 43°33' E 010°18'0 0.0
2017-Oct-17 09:26N 43°33' E 010°18'0 0.0
2017-Oct-17 08:59N 43°33' E 010°18'0 0.0
2017-Oct-17 08:26N 43°33' E 010°18'0 0.0
2017-Oct-17 07:59N 43°33' E 010°18'0 0.0
2017-Oct-17 07:30N 43°33' E 010°18'0 0.0
2017-Oct-17 06:58N 43°33' E 010°18'0 0.0
2017-Oct-17 06:25N 43°33' E 010°18'0 0.0
2017-Oct-17 06:00N 43°33' E 010°18'1 1.5
2017-Oct-17 05:28N 43°33' E 010°17'2 5.2
2017-Oct-17 05:00N 43°31' E 010°15'714.0
2017-Oct-17 04:30N 43°26' E 010°08'917.2
2017-Oct-17 04:01N 43°20' E 009°60'917.3
2017-Oct-17 03:31N 43°18' E 009°48'917.4
2017-Oct-17 03:01N 43°16' E 009°37'917.7
2017-Oct-17 02:31N 43°15' E 009°25'918.0
2017-Oct-17 02:01N 43°13' E 009°12'918.3
2017-Oct-17 01:31N 43°11' E 009°00'918.6
2017-Oct-17 01:01N 43°09' E 008°48'1019.0
2017-Oct-17 00:30N 43°08' E 008°34'919.1
2017-Oct-17 00:01N 43°06' E 008°22'1019.1
2017-Oct-16 23:30N 43°04' E 008°09'1122.7
2017-Oct-16 23:00N 43°00' E 007°54'279.6 020 / 51021.0 5.4 18.0 21.0
2017-Oct-16 22:58N 43°02' E 007°55'818.5
2017-Oct-16 22:31N 43°02' E 007°44'1019.3
2017-Oct-16 22:00N 42°60' E 007°31'1020.0
2017-Oct-16 21:30N 42°59' E 007°17'1120.1
2017-Oct-16 20:57N 42°57' E 007°02'1019.7
2017-Oct-16 20:26N 42°57' E 006°48'1118.4
2017-Oct-16 19:48N 42°56' E 006°32'619.3
2017-Oct-16 19:28N 42°54' E 006°24'919.5
2017-Oct-16 19:00N 42°54' E 006°11'1019.7
2017-Oct-16 18:31N 42°54' E 005°58'3719.5
2017-Oct-16 16:37N 43°09' E 005°12'219.3
2017-Oct-16 16:30N 43°11' E 005°11'816.9
2017-Oct-16 16:01N 43°19' E 005°15'15 1.4
2017-Oct-16 05:00N 43°18' E 005°36'1220.8 140 / 41025.0 5.4 18.0 19.0
2017-Oct-16 04:24N 43°21' E 005°19'2 4.6
2017-Oct-16 04:00N 43°20' E 005°17'5 9.0
2017-Oct-16 03:30N 43°17' E 005°13'4 7.9
2017-Oct-16 03:00N 43°14' E 005°11'4 8.1
2017-Oct-16 02:30N 43°10' E 005°08'4 7.9
2017-Oct-16 02:00N 43°07' E 005°04'4 7.2
2017-Oct-16 01:31N 43°05' E 005°01'1120.3
2017-Oct-16 01:00N 43°00' E 004°48'3 6.2 140 / 41025.0 5.4 18.0 19.0
2017-Oct-16 00:29N 43°01' E 004°52'3 7.1
2017-Oct-16 00:00N 43°00' E 004°48'4 7.2
2017-Oct-15 23:30N 43°00' E 004°43'9 7.4
2017-Oct-15 22:20N 43°00' E 004°31'5 7.1
2017-Oct-15 21:36N 43°01' E 004°24'1 7.1
2017-Oct-15 21:25N 43°02' E 004°22'9 7.1
2017-Oct-15 20:09N 43°05' E 004°11'3 7.1
2017-Oct-15 19:48N 43°06' E 004°08'2 6.8
2017-Oct-15 19:28N 43°08' E 004°06'4 7.2
2017-Oct-15 18:58N 43°10' E 004°02'3 7.4
2017-Oct-15 18:30N 43°12' E 003°58'4 7.4
2017-Oct-15 18:00N 43°14' E 003°54'4 7.5
2017-Oct-15 17:26N 43°18' E 003°51'3 7.3
2017-Oct-15 17:00N 43°20' E 003°48'6 4.3
2017-Oct-15 15:43N 43°24' E 003°43'0 0.0
2017-Oct-15 15:28N 43°24' E 003°43'0 0.0
2017-Oct-15 14:55N 43°24' E 003°43'0 0.0
2017-Oct-15 13:52N 43°24' E 003°43'0 0.0
2017-Oct-15 13:07N 43°24' E 003°43'0 0.0
2017-Oct-15 12:55N 43°24' E 003°43'0 0.0
2017-Oct-15 11:37N 43°24' E 003°43'0 0.0
2017-Oct-15 11:25N 43°24' E 003°43'0 0.0
2017-Oct-15 10:52N 43°24' E 003°43'0 0.0
2017-Oct-15 09:37N 43°24' E 003°43'0 0.0
2017-Oct-15 09:22N 43°24' E 003°43'0 0.0
2017-Oct-15 08:49N 43°24' E 003°43'0 0.0
2017-Oct-15 08:28N 43°24' E 003°43'0 0.0
2017-Oct-15 07:40N 43°24' E 003°43'0 0.1
2017-Oct-15 07:31N 43°24' E 003°43'4 6.8
2017-Oct-15 06:53N 43°22' E 003°47'616.4
2017-Oct-15 06:30N 43°15' E 003°46'816.8
2017-Oct-15 06:00N 43°07' E 003°43'9716.1
2017-Oct-15 00:00N 41°36' E 003°00'5719.2 190 / 111023.0 21.018.025.1
2017-Oct-14 21:00N 40°48' E 002°18'2113.4 170 / 51021.0 5.4 18.0
2017-Oct-14 19:28N 40°31' E 002°04'816.7
2017-Oct-14 19:00N 40°24' E 001°58'1016.9
2017-Oct-14 18:26N 40°17' E 001°50'6217.0
2017-Oct-14 14:47N 39°25' E 001°06'517.1
2017-Oct-14 14:30N 39°21' E 001°02'8556.4
2017-Oct-14 13:00N 38°54' W 000°42'6713.8 140 / 121023.0 27.019.722.0
2017-Oct-14 08:07N 37°50' W 000°16'432.9
2017-Oct-14 08:00N 37°48' W 000°12'653.8 070 / 161021.0 5.4 18.0 21.0
2017-Oct-14 07:53N 37°47' W 000°19'616.9
2017-Oct-14 07:30N 37°42' W 000°24'816.9
2017-Oct-14 07:00N 37°35' W 000°30'916.7
2017-Oct-14 06:29N 37°28' W 000°38'816.9
2017-Oct-14 06:00N 37°23' W 000°45'2156.7
2017-Oct-14 06:00N 37°24' W 000°48'816.2 060 / 141023.0 22.020.525.0
2017-Oct-14 05:30N 37°17' W 000°53'816.7
2017-Oct-14 05:00N 37°11' W 000°60'1116.6
2017-Oct-14 04:21N 37°03' W 001°10'616.5
2017-Oct-14 03:58N 36°59' W 001°16'816.6
2017-Oct-14 03:30N 36°54' W 001°23'1916.4
2017-Oct-14 02:22N 36°43' W 001°42'616.8
2017-Oct-14 02:01N 36°39' W 001°47'917.0
2017-Oct-14 01:31N 36°33' W 001°55'1325.0
2017-Oct-14 01:00N 36°24' W 002°06'711.0 060 / 141023.0 22.020.525.0
2017-Oct-14 00:21N 36°22' W 002°14'5717.0
2017-Oct-13 21:00N 36°12' W 003°24'6315.8 130 / 151021.0 5.4 18.0
2017-Oct-13 17:00N 36°06' W 004°42'2423.5 050 / 101021.010.8 21.0 23.0
2017-Oct-13 15:58N 36°05' W 005°12'716.4
2017-Oct-13 15:30N 36°05' W 005°21'3 0.8
2017-Oct-13 12:00N 36°06' W 005°18'0 0.0 290 / 81025.0 23.016.921.0
2017-Oct-13 05:00N 36°06' W 005°18'4 8.6 090 / 331023.0 18.0 19.0
2017-Oct-13 04:30N 36°09' W 005°22'2 4.8
2017-Oct-13 04:00N 36°07' W 005°23'4 8.2
2017-Oct-13 03:30N 36°03' W 005°23'510.5
2017-Oct-13 03:00N 35°58' W 005°27'4 8.6
2017-Oct-13 02:30N 35°57' W 005°32'5 8.3
2017-Oct-13 01:55N 35°55' W 005°38'4 4.0
2017-Oct-13 01:00N 35°54' W 005°42'819.8 090 / 331023.0 18.0 19.0
2017-Oct-13 00:36N 35°55' W 005°51'3 8.3
2017-Oct-13 00:17N 35°55' W 005°55'3 8.0
2017-Oct-12 23:56N 35°55' W 005°58'9 8.3
2017-Oct-12 22:52N 35°55' W 006°09'2510.9
2017-Oct-12 20:34N 36°11' W 006°33'111.4
2017-Oct-12 20:30N 36°12' W 006°33'510.2
2017-Oct-12 20:00N 36°17' W 006°34'6358.7
2017-Oct-12 20:00N 36°12' W 006°30'919.4 110 / 281021.0 5.4 18.0 19.0
2017-Oct-12 19:30N 36°21' W 006°34'10 7.1
2017-Oct-12 18:04N 36°30' W 006°29'1 8.2
2017-Oct-12 18:00N 36°30' W 006°29'4 8.0
2017-Oct-12 17:30N 36°32' W 006°24'4 7.4
2017-Oct-12 17:00N 36°33' W 006°20'2 1.2
2017-Oct-12 15:05N 36°32' W 006°17'15 1.2
2017-Oct-12 02:22N 36°18' W 006°25'511.8
2017-Oct-12 01:59N 36°13' W 006°24'3110.4
2017-Oct-11 23:00N 35°54' W 005°54'1510.6 090 / 271021.0 5.4 18.0 19.0
2017-Oct-11 21:37N 35°58' W 005°37'111.0
2017-Oct-11 21:30N 35°58' W 005°35'612.7
2017-Oct-11 21:01N 35°60' W 005°28'714.4
2017-Oct-11 20:30N 36°02' W 005°19'714.7
2017-Oct-11 20:00N 36°03' W 005°10'3812.7
2017-Oct-11 17:00N 36°12' W 004°24'6312.6 070 / 101020.0 5.4 24.0
2017-Oct-11 12:00N 36°18' W 003°06'14412.0 070 / 101020.0 5.4 24.0
2017-Oct-11 00:00N 37°35' W 000°34'612.5
2017-Oct-10 23:30N 37°41' W 000°32'612.5
2017-Oct-10 23:00N 37°47' W 000°30'5296.8
2017-Oct-10 23:00N 37°42' W 000°30'1122.7 080 / 91021.0 5.4 20.0 22.0
2017-Oct-10 22:30N 37°53' W 000°28'612.3
2017-Oct-10 22:00N 37°59' W 000°26'612.4
2017-Oct-10 21:30N 38°05' W 000°24'13 2.0
2017-Oct-10 15:00N 38°18' W 000°24'0 0.0 200 / 51021.0 5.4 23.0 22.0
2017-Oct-10 10:00N 38°18' W 000°24'2 0.6 200 / 51021.0 5.4 23.0 22.0
2017-Oct-10 06:08N 38°20' W 000°22'46307.4
2017-Oct-10 06:00N 38°18' E 000°36'6711.1 170 / 121020.0 5.4 18.0 22.0
2017-Oct-10 00:00N 39°24' E 000°48'10515.8 170 / 121020.0 5.4 18.0 22.0
2017-Oct-09 17:20N 40°55' E 001°56'927.2
2017-Oct-09 17:00N 40°48' E 001°48'15763.1 110 / 71022.0 5.4 23.0 22.0
2017-Oct-09 16:58N 40°60' E 001°60'715.3
2017-Oct-09 16:30N 41°06' E 002°04'12 2.2
2017-Oct-09 11:00N 41°18' E 002°06'0 0.0 110 / 71022.0 5.4 23.0 22.0
2017-Oct-09 04:00N 41°18' E 002°06'3 2.5 210 / 101021.0 5.4 20.0 21.0
2017-Oct-09 02:37N 41°18' E 002°11'511.4
2017-Oct-09 02:08N 41°13' E 002°09'215.6
2017-Oct-09 02:00N 41°11' E 002°08'815.2
2017-Oct-09 01:30N 41°06' E 002°00'815.4
2017-Oct-09 01:00N 41°01' E 001°53'815.9
2017-Oct-09 00:30N 40°55' E 001°46'5816.6
2017-Oct-08 21:00N 40°12' E 000°54'73 6.1 210 / 101021.0 5.4 20.0 21.0
2017-Oct-08 09:00N 39°24' W 000°18'   250 / 81021.0 5.4 21.0 22.0
Track history (hours):
 
Tides and Currents Weather Stations Pressure Air Temp Water Temp Dewpoint Dewpoint Depression Visibility Wind Speed Wind Dir Waves Ship Positions

Celebrity Constellation

Last reported at 2017-Oct-18 06:00 UTC. Time now 2017-Oct-18 13:01 UTC.
Position N 41°54' E 008°42'.

Length 294 m; draft 8.3 m.

Type: Passenger vessel. MMSI: 249046000.

Wind from 010 at 4 knots

Barometer 1021.0 mb
Air temperature 18.0 ° C
Visibility: greater than 5.4 NM

Date/timePositionNaut miles runAvg speedWind from/ knotsBaromVisibWave heightAir tempDewpointWater temp
2017-Oct-18 06:00N 41°54' E 008°42'43 7.2 010 / 41021.0 5.4 18.0
2017-Oct-18 00:00N 42°36' E 008°30'551.3 100 / 31025.0 5.4 18.0 21.0
2017-Oct-17 23:54N 42°40' E 008°33'716.9
2017-Oct-17 23:30N 42°46' E 008°36'917.1
2017-Oct-17 23:00N 42°51' E 008°45'917.1
2017-Oct-17 22:30N 42°56' E 008°55'917.2
2017-Oct-17 22:00N 43°01' E 009°05'917.5
2017-Oct-17 21:30N 43°05' E 009°16'917.4
2017-Oct-17 21:00N 43°08' E 009°27'817.1
2017-Oct-17 20:30N 43°12' E 009°37'917.4
2017-Oct-17 20:00N 43°16' E 009°48'917.5
2017-Oct-17 19:30N 43°20' E 009°59'917.6
2017-Oct-17 19:00N 43°26' E 010°07'815.9
2017-Oct-17 18:30N 43°32' E 010°15'3 5.7
2017-Oct-17 18:00N 43°33' E 010°18'0 0.0
2017-Oct-17 17:28N 43°33' E 010°18'0 0.0
2017-Oct-17 16:57N 43°33' E 010°18'0 0.0
2017-Oct-17 16:30N 43°33' E 010°18'0 0.0
2017-Oct-17 15:55N 43°33' E 010°18'0 0.0
2017-Oct-17 15:27N 43°33' E 010°18'0 0.0
2017-Oct-17 14:56N 43°33' E 010°18'0 0.0
2017-Oct-17 14:29N 43°33' E 010°18'0 0.0
2017-Oct-17 13:53N 43°33' E 010°18'0 0.0
2017-Oct-17 13:28N 43°33' E 010°18'3 7.2
2017-Oct-17 13:00N 43°30' E 010°18'374.2 1023.0 5.4 21.0 21.0
2017-Oct-17 12:57N 43°33' E 010°18'0 0.0
2017-Oct-17 12:27N 43°33' E 010°18'0 0.0
2017-Oct-17 12:00N 43°33' E 010°18'0 0.0
2017-Oct-17 11:30N 43°33' E 010°18'0 0.0
2017-Oct-17 10:48N 43°33' E 010°18'0 0.0
2017-Oct-17 10:18N 43°33' E 010°18'0 0.0
2017-Oct-17 10:00N 43°33' E 010°18'0 0.0
2017-Oct-17 09:26N 43°33' E 010°18'0 0.0
2017-Oct-17 08:59N 43°33' E 010°18'0 0.0
2017-Oct-17 08:26N 43°33' E 010°18'0 0.0
2017-Oct-17 07:59N 43°33' E 010°18'0 0.0
2017-Oct-17 07:30N 43°33' E 010°18'0 0.0
2017-Oct-17 06:58N 43°33' E 010°18'0 0.0
2017-Oct-17 06:25N 43°33' E 010°18'0 0.0
2017-Oct-17 06:00N 43°33' E 010°18'1 1.5
2017-Oct-17 05:28N 43°33' E 010°17'2 5.2
2017-Oct-17 05:00N 43°31' E 010°15'714.0
2017-Oct-17 04:30N 43°26' E 010°08'917.2
2017-Oct-17 04:01N 43°20' E 009°60'917.3
2017-Oct-17 03:31N 43°18' E 009°48'917.4
2017-Oct-17 03:01N 43°16' E 009°37'917.7
2017-Oct-17 02:31N 43°15' E 009°25'918.0
2017-Oct-17 02:01N 43°13' E 009°12'918.3
2017-Oct-17 01:31N 43°11' E 009°00'918.6
2017-Oct-17 01:01N 43°09' E 008°48'1019.0
2017-Oct-17 00:30N 43°08' E 008°34'919.1
2017-Oct-17 00:01N 43°06' E 008°22'1019.1
2017-Oct-16 23:30N 43°04' E 008°09'1122.7
2017-Oct-16 23:00N 43°00' E 007°54'279.6 020 / 51021.0 5.4 18.0 21.0
2017-Oct-16 22:58N 43°02' E 007°55'818.5
2017-Oct-16 22:31N 43°02' E 007°44'1019.3
2017-Oct-16 22:00N 42°60' E 007°31'1020.0
2017-Oct-16 21:30N 42°59' E 007°17'1120.1
2017-Oct-16 20:57N 42°57' E 007°02'1019.7
2017-Oct-16 20:26N 42°57' E 006°48'1118.4
2017-Oct-16 19:48N 42°56' E 006°32'619.3
2017-Oct-16 19:28N 42°54' E 006°24'919.5
2017-Oct-16 19:00N 42°54' E 006°11'1019.7
2017-Oct-16 18:31N 42°54' E 005°58'3719.5
2017-Oct-16 16:37N 43°09' E 005°12'219.3
2017-Oct-16 16:30N 43°11' E 005°11'816.9
2017-Oct-16 16:01N 43°19' E 005°15'15 1.4
2017-Oct-16 05:00N 43°18' E 005°36'1220.8 140 / 41025.0 5.4 18.0 19.0
2017-Oct-16 04:24N 43°21' E 005°19'2 4.6
2017-Oct-16 04:00N 43°20' E 005°17'5 9.0
2017-Oct-16 03:30N 43°17' E 005°13'4 7.9
2017-Oct-16 03:00N 43°14' E 005°11'4 8.1
2017-Oct-16 02:30N 43°10' E 005°08'4 7.9
2017-Oct-16 02:00N 43°07' E 005°04'4 7.2
2017-Oct-16 01:31N 43°05' E 005°01'1120.3
2017-Oct-16 01:00N 43°00' E 004°48'3 6.2 140 / 41025.0 5.4 18.0 19.0
2017-Oct-16 00:29N 43°01' E 004°52'3 7.1
2017-Oct-16 00:00N 43°00' E 004°48'4 7.2
2017-Oct-15 23:30N 43°00' E 004°43'9 7.4
2017-Oct-15 22:20N 43°00' E 004°31'5 7.1
2017-Oct-15 21:36N 43°01' E 004°24'1 7.1
2017-Oct-15 21:25N 43°02' E 004°22'9 7.1
2017-Oct-15 20:09N 43°05' E 004°11'3 7.1
2017-Oct-15 19:48N 43°06' E 004°08'2 6.8
2017-Oct-15 19:28N 43°08' E 004°06'4 7.2
2017-Oct-15 18:58N 43°10' E 004°02'3 7.4
2017-Oct-15 18:30N 43°12' E 003°58'4 7.4
2017-Oct-15 18:00N 43°14' E 003°54'4 7.5
2017-Oct-15 17:26N 43°18' E 003°51'3 7.3
2017-Oct-15 17:00N 43°20' E 003°48'6 4.3
2017-Oct-15 15:43N 43°24' E 003°43'0 0.0
2017-Oct-15 15:28N 43°24' E 003°43'0 0.0
2017-Oct-15 14:55N 43°24' E 003°43'0 0.0
2017-Oct-15 13:52N 43°24' E 003°43'0 0.0
2017-Oct-15 13:07N 43°24' E 003°43'0 0.0
2017-Oct-15 12:55N 43°24' E 003°43'0 0.0
2017-Oct-15 11:37N 43°24' E 003°43'0 0.0
2017-Oct-15 11:25N 43°24' E 003°43'0 0.0
2017-Oct-15 10:52N 43°24' E 003°43'0 0.0
2017-Oct-15 09:37N 43°24' E 003°43'0 0.0
2017-Oct-15 09:22N 43°24' E 003°43'0 0.0
2017-Oct-15 08:49N 43°24' E 003°43'0 0.0
2017-Oct-15 08:28N 43°24' E 003°43'0 0.0
2017-Oct-15 07:40N 43°24' E 003°43'0 0.1
2017-Oct-15 07:31N 43°24' E 003°43'4 6.8
2017-Oct-15 06:53N 43°22' E 003°47'616.4
2017-Oct-15 06:30N 43°15' E 003°46'816.8
2017-Oct-15 06:00N 43°07' E 003°43'9716.1
2017-Oct-15 00:00N 41°36' E 003°00'5719.2 190 / 111023.0 21.018.025.1
2017-Oct-14 21:00N 40°48' E 002°18'2113.4 170 / 51021.0 5.4 18.0
2017-Oct-14 19:28N 40°31' E 002°04'816.7
2017-Oct-14 19:00N 40°24' E 001°58'1016.9
2017-Oct-14 18:26N 40°17' E 001°50'6217.0
2017-Oct-14 14:47N 39°25' E 001°06'517.1
2017-Oct-14 14:30N 39°21' E 001°02'8556.4
2017-Oct-14 13:00N 38°54' W 000°42'6713.8 140 / 121023.0 27.019.722.0
2017-Oct-14 08:07N 37°50' W 000°16'432.9
2017-Oct-14 08:00N 37°48' W 000°12'653.8 070 / 161021.0 5.4 18.0 21.0
2017-Oct-14 07:53N 37°47' W 000°19'616.9
2017-Oct-14 07:30N 37°42' W 000°24'816.9
2017-Oct-14 07:00N 37°35' W 000°30'916.7
2017-Oct-14 06:29N 37°28' W 000°38'816.9
2017-Oct-14 06:00N 37°23' W 000°45'2156.7
2017-Oct-14 06:00N 37°24' W 000°48'816.2 060 / 141023.0 22.020.525.0
2017-Oct-14 05:30N 37°17' W 000°53'816.7
2017-Oct-14 05:00N 37°11' W 000°60'1116.6
2017-Oct-14 04:21N 37°03' W 001°10'616.5
2017-Oct-14 03:58N 36°59' W 001°16'816.6
2017-Oct-14 03:30N 36°54' W 001°23'1916.4
2017-Oct-14 02:22N 36°43' W 001°42'616.8
2017-Oct-14 02:01N 36°39' W 001°47'917.0
2017-Oct-14 01:31N 36°33' W 001°55'1325.0
2017-Oct-14 01:00N 36°24' W 002°06'711.0 060 / 141023.0 22.020.525.0
2017-Oct-14 00:21N 36°22' W 002°14'5717.0
2017-Oct-13 21:00N 36°12' W 003°24'6315.8 130 / 151021.0 5.4 18.0
2017-Oct-13 17:00N 36°06' W 004°42'2423.5 050 / 101021.010.8 21.0 23.0
2017-Oct-13 15:58N 36°05' W 005°12'716.4
2017-Oct-13 15:30N 36°05' W 005°21'3 0.8
2017-Oct-13 12:00N 36°06' W 005°18'0 0.0 290 / 81025.0 23.016.921.0
2017-Oct-13 05:00N 36°06' W 005°18'4 8.6 090 / 331023.0 18.0 19.0
2017-Oct-13 04:30N 36°09' W 005°22'2 4.8
2017-Oct-13 04:00N 36°07' W 005°23'4 8.2
2017-Oct-13 03:30N 36°03' W 005°23'510.5
2017-Oct-13 03:00N 35°58' W 005°27'4 8.6
2017-Oct-13 02:30N 35°57' W 005°32'5 8.3
2017-Oct-13 01:55N 35°55' W 005°38'4 4.0
2017-Oct-13 01:00N 35°54' W 005°42'819.8 090 / 331023.0 18.0 19.0
2017-Oct-13 00:36N 35°55' W 005°51'3 8.3
2017-Oct-13 00:17N 35°55' W 005°55'3 8.0
2017-Oct-12 23:56N 35°55' W 005°58'9 8.3
2017-Oct-12 22:52N 35°55' W 006°09'2510.9
2017-Oct-12 20:34N 36°11' W 006°33'111.4
2017-Oct-12 20:30N 36°12' W 006°33'510.2
2017-Oct-12 20:00N 36°17' W 006°34'6358.7
2017-Oct-12 20:00N 36°12' W 006°30'919.4 110 / 281021.0 5.4 18.0 19.0
2017-Oct-12 19:30N 36°21' W 006°34'10 7.1
2017-Oct-12 18:04N 36°30' W 006°29'1 8.2
2017-Oct-12 18:00N 36°30' W 006°29'4 8.0
2017-Oct-12 17:30N 36°32' W 006°24'4 7.4
2017-Oct-12 17:00N 36°33' W 006°20'2 1.2
2017-Oct-12 15:05N 36°32' W 006°17'15 1.2
2017-Oct-12 02:22N 36°18' W 006°25'511.8
2017-Oct-12 01:59N 36°13' W 006°24'3110.4
2017-Oct-11 23:00N 35°54' W 005°54'1510.6 090 / 271021.0 5.4 18.0 19.0
2017-Oct-11 21:37N 35°58' W 005°37'111.0
2017-Oct-11 21:30N 35°58' W 005°35'612.7
2017-Oct-11 21:01N 35°60' W 005°28'714.4
2017-Oct-11 20:30N 36°02' W 005°19'714.7
2017-Oct-11 20:00N 36°03' W 005°10'3812.7
2017-Oct-11 17:00N 36°12' W 004°24'6312.6 070 / 101020.0 5.4 24.0
2017-Oct-11 12:00N 36°18' W 003°06'14412.0 070 / 101020.0 5.4 24.0
2017-Oct-11 00:00N 37°35' W 000°34'612.5
2017-Oct-10 23:30N 37°41' W 000°32'612.5
2017-Oct-10 23:00N 37°47' W 000°30'5296.8
2017-Oct-10 23:00N 37°42' W 000°30'1122.7 080 / 91021.0 5.4 20.0 22.0
2017-Oct-10 22:30N 37°53' W 000°28'612.3
2017-Oct-10 22:00N 37°59' W 000°26'612.4
2017-Oct-10 21:30N 38°05' W 000°24'13 2.0
2017-Oct-10 15:00N 38°18' W 000°24'0 0.0 200 / 51021.0 5.4 23.0 22.0
2017-Oct-10 10:00N 38°18' W 000°24'2 0.6 200 / 51021.0 5.4 23.0 22.0
2017-Oct-10 06:08N 38°20' W 000°22'46307.4
2017-Oct-10 06:00N 38°18' E 000°36'6711.1 170 / 121020.0 5.4 18.0 22.0
2017-Oct-10 00:00N 39°24' E 000°48'10515.8 170 / 121020.0 5.4 18.0 22.0
2017-Oct-09 17:20N 40°55' E 001°56'927.2
2017-Oct-09 17:00N 40°48' E 001°48'15763.1 110 / 71022.0 5.4 23.0 22.0
2017-Oct-09 16:58N 40°60' E 001°60'715.3
2017-Oct-09 16:30N 41°06' E 002°04'12 2.2
2017-Oct-09 11:00N 41°18' E 002°06'0 0.0 110 / 71022.0 5.4 23.0 22.0
2017-Oct-09 04:00N 41°18' E 002°06'3 2.5 210 / 101021.0 5.4 20.0 21.0
2017-Oct-09 02:37N 41°18' E 002°11'511.4
2017-Oct-09 02:08N 41°13' E 002°09'215.6
2017-Oct-09 02:00N 41°11' E 002°08'815.2
2017-Oct-09 01:30N 41°06' E 002°00'815.4
2017-Oct-09 01:00N 41°01' E 001°53'815.9
2017-Oct-09 00:30N 40°55' E 001°46'5816.6
2017-Oct-08 21:00N 40°12' E 000°54'73 6.1 210 / 101021.0 5.4 20.0 21.0
2017-Oct-08 09:00N 39°24' W 000°18'   250 / 81021.0 5.4 21.0 22.0

Dump ship's entire track history